Time;durP1;ratioP1;P1;durP2;ratioP2;P2;SDS_P1;SDS_P2;PMS_P1;PMS_P2;Temp;Humidity;BMP_temperature;BMP_pressure;BME280_temperature;BME280_humidity;BME280_pressure;Samples;Min_cycle;Max_cycle;Signal;HPM_P1;HPM_P2
2021/05/04 00:00:52;;;;;;;14.90;3.13;;;12.30;99.90;;;;;;2083700;28;20117;-63
2021/05/04 00:01:52;;;;;;;17.52;3.75;;;12.30;99.90;;;;;;2078606;28;20044;-63
2021/05/04 00:02:53;;;;;;;18.77;3.17;;;12.30;99.90;;;;;;2084973;28;20022;-64
2021/05/04 00:03:54;;;;;;;25.73;3.95;;;12.30;99.90;;;;;;2088300;28;20029;-64
2021/05/04 00:04:54;;;;;;;23.38;3.78;;;12.30;99.90;;;;;;2094694;28;20099;-63
2021/05/04 00:05:55;;;;;;;16.55;3.75;;;12.30;99.90;;;;;;2095135;28;20448;-63
2021/05/04 00:06:55;;;;;;;19.52;3.80;;;12.30;99.90;;;;;;2095020;28;20132;-63
2021/05/04 00:07:56;;;;;;;19.05;4.40;;;12.30;99.90;;;;;;2094850;28;20717;-63
2021/05/04 00:08:57;;;;;;;18.52;3.13;;;12.30;99.90;;;;;;2088648;28;21189;-63
2021/05/04 00:09:58;;;;;;;23.58;3.78;;;12.30;99.90;;;;;;2074294;28;20073;-63
2021/05/04 00:10:58;;;;;;;14.27;3.90;;;12.30;99.90;;;;;;2086770;28;20036;-64
2021/05/04 00:11:59;;;;;;;27.92;3.92;;;12.30;99.90;;;;;;2086888;28;20755;-63
2021/05/04 00:13:00;;;;;;;28.13;4.40;;;12.30;99.90;;;;;;2090259;28;20021;-63
2021/05/04 00:14:00;;;;;;;23.45;3.83;;;12.30;99.90;;;;;;2089925;28;20106;-64
2021/05/04 00:15:02;;;;;;;16.83;3.50;;;12.30;99.90;;;;;;2089611;28;20021;-64
2021/05/04 00:16:03;;;;;;;14.07;3.50;;;12.30;99.90;;;;;;2084837;28;20041;-63
2021/05/04 00:17:04;;;;;;;17.90;3.17;;;12.30;99.90;;;;;;2076281;28;20061;-63
2021/05/04 00:18:04;;;;;;;27.50;4.15;;;12.30;99.90;;;;;;2079867;28;20033;-63
2021/05/04 00:19:05;;;;;;;22.83;4.47;;;12.30;99.90;;;;;;2075808;28;20046;-63
2021/05/04 00:20:06;;;;;;;22.88;3.75;;;12.30;99.90;;;;;;2089892;28;20044;-63
2021/05/04 00:21:07;;;;;;;17.27;3.70;;;12.30;99.90;;;;;;2089526;28;20496;-63
2021/05/04 00:22:08;;;;;;;16.25;2.88;;;12.30;99.90;;;;;;2089129;28;20041;-63
2021/05/04 00:23:09;;;;;;;16.95;2.83;;;12.30;99.90;;;;;;2088926;28;20111;-63
2021/05/04 00:24:09;;;;;;;17.38;3.45;;;12.30;99.90;;;;;;2089726;28;20009;-63
2021/05/04 00:25:11;;;;;;;20.83;3.90;;;12.30;99.90;;;;;;2089970;28;20033;-63
2021/05/04 00:26:11;;;;;;;18.83;3.15;;;12.30;99.90;;;;;;2078532;28;20030;-63
2021/05/04 00:27:12;;;;;;;17.48;3.17;;;12.30;99.90;;;;;;2073274;28;20037;-63
2021/05/04 00:28:13;;;;;;;19.27;3.33;;;12.30;99.90;;;;;;2076711;28;20152;-64
2021/05/04 00:29:13;;;;;;;23.83;3.90;;;12.30;99.90;;;;;;2074790;28;20054;-63
2021/05/04 00:30:14;;;;;;;21.38;3.47;;;12.30;99.90;;;;;;2089726;28;20025;-64
2021/05/04 00:31:15;;;;;;;28.38;4.28;;;12.30;99.90;;;;;;2089775;28;20492;-63
2021/05/04 00:32:16;;;;;;;27.35;4.20;;;12.30;99.90;;;;;;2089014;28;20110;-63
2021/05/04 00:33:16;;;;;;;20.92;3.72;;;12.30;99.90;;;;;;2086295;28;20060;-63
2021/05/04 00:34:17;;;;;;;21.30;3.53;;;12.30;99.90;;;;;;2081573;28;20113;-63
2021/05/04 00:35:18;;;;;;;20.92;3.70;;;12.30;99.90;;;;;;2083862;28;20030;-64
2021/05/04 00:36:18;;;;;;;19.00;3.28;;;12.30;99.90;;;;;;2079229;28;20025;-63
2021/05/04 00:37:19;;;;;;;13.95;2.75;;;12.30;99.90;;;;;;2089674;28;20048;-63
2021/05/04 00:38:19;;;;;;;18.38;3.78;;;12.30;99.90;;;;;;2089286;28;20101;-63
2021/05/04 00:39:20;;;;;;;20.55;3.60;;;12.30;99.90;;;;;;2088819;28;20032;-63
2021/05/04 00:40:21;;;;;;;27.23;3.72;;;12.30;99.90;;;;;;2080823;28;20025;-63
2021/05/04 00:41:22;;;;;;;20.83;3.80;;;12.30;99.90;;;;;;2084008;28;20029;-64
2021/05/04 00:42:25;;;;;;;17.05;3.15;;;12.30;99.90;;;;;;2087040;28;20049;-63
2021/05/04 00:43:30;;;;;;;18.35;3.78;;;12.30;99.90;;;;;;2080847;28;20108;-64
2021/05/04 00:44:32;;;;;;;16.75;2.95;;;12.30;99.90;;;;;;2081297;28;20099;-63
2021/05/04 00:45:32;;;;;;;18.52;4.13;;;12.30;99.90;;;;;;2089846;28;20021;-63
2021/05/04 00:46:33;;;;;;;21.00;3.70;;;12.30;99.90;;;;;;2089428;28;20028;-63
2021/05/04 00:47:33;;;;;;;20.10;3.75;;;12.30;99.90;;;;;;2089242;28;20495;-63
2021/05/04 00:48:34;;;;;;;18.80;3.33;;;12.30;99.90;;;;;;2089153;28;20048;-64
2021/05/04 00:49:35;;;;;;;19.98;3.28;;;12.30;99.90;;;;;;2089672;28;20104;-63
2021/05/04 00:50:36;;;;;;;15.40;3.00;;;12.30;99.90;;;;;;2084224;28;20538;-63
2021/05/04 00:51:37;;;;;;;17.50;3.20;;;12.30;99.90;;;;;;2073071;28;20493;-63
2021/05/04 00:52:38;;;;;;;13.23;2.38;;;12.30;99.90;;;;;;2086383;28;20075;-64
2021/05/04 00:53:40;;;;;;;20.65;3.55;;;12.30;99.90;;;;;;2082296;28;20033;-63
2021/05/04 00:54:41;;;;;;;22.25;3.95;;;12.30;99.90;;;;;;2081177;28;20021;-63
2021/05/04 00:55:42;;;;;;;16.10;3.15;;;12.30;99.90;;;;;;2075385;28;20441;-63
2021/05/04 00:56:43;;;;;;;14.80;2.55;;;12.30;99.90;;;;;;2072914;28;20076;-63
2021/05/04 00:57:48;;;;;;;31.55;4.35;;;12.30;99.90;;;;;;2076581;28;20041;-63
2021/05/04 00:58:50;;;;;;;12.63;3.20;;;12.30;99.90;;;;;;2075401;28;20026;-63
2021/05/04 00:59:53;;;;;;;25.92;3.08;;;12.30;99.90;;;;;;2081347;28;20473;-64
2021/05/04 01:00:54;;;;;;;21.40;4.10;;;12.30;99.90;;;;;;2076458;28;20029;-63
2021/05/04 01:01:55;;;;;;;32.03;6.00;;;12.30;99.90;;;;;;2072681;28;20052;-63
2021/05/04 01:03:02;;;;;;;17.13;2.78;;;12.30;99.90;;;;;;2079693;28;20025;-63
2021/05/04 01:04:04;;;;;;;12.25;2.55;;;12.30;99.90;;;;;;2084302;28;20032;-63
2021/05/04 01:05:05;;;;;;;;;;;12.30;99.90;;;;;;2089808;28;20025;-64
2021/05/04 01:06:06;;;;;;;12.68;2.95;;;12.30;99.90;;;;;;2089221;28;19905;-63
2021/05/04 01:07:07;;;;;;;27.67;4.00;;;12.30;99.90;;;;;;2089117;28;20088;-64
2021/05/04 01:08:07;;;;;;;24.00;4.60;;;12.30;99.90;;;;;;2089783;28;20453;-63
2021/05/04 01:09:08;;;;;;;19.02;3.00;;;12.30;99.90;;;;;;2083953;28;20029;-63
2021/05/04 01:10:09;;;;;;;19.02;3.90;;;12.30;99.90;;;;;;2081079;28;20125;-63
2021/05/04 01:11:10;;;;;;;17.42;2.92;;;12.30;99.90;;;;;;2082174;28;20017;-63
2021/05/04 01:12:11;;;;;;;23.92;2.95;;;12.30;99.90;;;;;;2078168;28;20025;-63
2021/05/04 01:13:11;;;;;;;16.15;2.58;;;12.30;99.90;;;;;;2081029;28;20381;-63
2021/05/04 01:14:13;;;;;;;14.13;2.55;;;12.30;99.90;;;;;;2084172;28;20032;-64
2021/05/04 01:15:14;;;;;;;21.00;3.17;;;12.30;99.90;;;;;;2072944;28;20111;-63
2021/05/04 01:16:17;;;;;;;13.85;2.97;;;12.30;99.90;;;;;;2084454;28;20520;-63
2021/05/04 01:17:17;;;;;;;31.23;4.55;;;12.30;99.90;;;;;;2074315;28;20014;-63
2021/05/04 01:18:19;;;;;;;17.52;3.30;;;12.30;99.90;;;;;;2078756;28;20049;-64
2021/05/04 01:19:21;;;;;;;23.25;3.67;;;12.30;99.90;;;;;;2083173;28;20063;-64
2021/05/04 01:20:23;;;;;;;11.77;2.90;;;12.30;99.90;;;;;;2084216;28;20099;-63
2021/05/04 01:21:23;;;;;;;17.33;3.67;;;12.30;99.90;;;;;;2085054;28;20021;-63
2021/05/04 01:22:24;;;;;;;19.80;3.50;;;12.30;99.90;;;;;;2075891;28;20120;-63
2021/05/04 01:23:25;;;;;;;13.75;3.22;;;12.30;99.90;;;;;;2077183;28;20018;-63
2021/05/04 01:24:25;;;;;;;21.02;3.15;;;12.30;99.90;;;;;;2075310;28;20377;-63
2021/05/04 01:25:26;;;;;;;22.50;3.90;;;12.30;99.90;;;;;;2080442;28;20025;-64
2021/05/04 01:26:27;;;;;;;14.05;2.83;;;12.30;99.90;;;;;;2086563;28;20025;-64
2021/05/04 01:27:28;;;;;;;17.80;3.00;;;12.30;99.90;;;;;;2088124;28;20100;-64
2021/05/04 01:28:28;;;;;;;26.45;4.18;;;12.20;99.90;;;;;;2088680;28;20409;-64
2021/05/04 01:29:29;;;;;;;20.80;3.30;;;12.20;99.90;;;;;;2089221;28;20013;-64
2021/05/04 01:30:30;;;;;;;20.08;3.33;;;12.20;99.90;;;;;;2081923;28;20496;-63
2021/05/04 01:31:30;;;;;;;19.20;3.53;;;12.20;99.90;;;;;;2078223;28;20109;-64
2021/05/04 01:32:31;;;;;;;14.75;3.13;;;12.20;99.90;;;;;;2073575;28;20068;-63
2021/05/04 01:33:32;;;;;;;13.98;3.70;;;12.20;99.90;;;;;;2088408;28;20036;-64
2021/05/04 01:34:33;;;;;;;15.77;2.72;;;12.20;99.90;;;;;;2088736;28;20036;-63
2021/05/04 01:35:34;;;;;;;19.88;3.75;;;12.20;99.90;;;;;;2089159;28;20535;-64
2021/05/04 01:36:35;;;;;;;22.80;4.15;;;12.10;99.90;;;;;;2076032;28;20034;-63
2021/05/04 01:37:39;;;;;;;17.95;3.28;;;12.10;99.90;;;;;;2072393;28;20448;-64
2021/05/04 01:38:39;;;;;;;16.92;2.75;;;12.10;99.90;;;;;;2072667;28;20040;-63
2021/05/04 01:39:49;;;;;;;15.52;3.45;;;12.10;99.90;;;;;;2077777;28;20028;-63
2021/05/04 01:40:49;;;;;;;22.40;3.92;;;12.10;99.90;;;;;;2086567;28;20485;-64
2021/05/04 01:41:50;;;;;;;14.70;3.10;;;12.00;99.90;;;;;;2077320;28;20026;-63
2021/05/04 01:42:51;;;;;;;21.45;3.70;;;12.00;99.90;;;;;;2074278;28;20049;-64
2021/05/04 01:43:51;;;;;;;22.77;4.05;;;11.90;99.90;;;;;;2072984;28;20014;-64
2021/05/04 01:44:52;;;;;;;15.20;3.50;;;11.90;99.90;;;;;;2079725;28;20047;-64
2021/05/04 01:45:53;;;;;;;18.85;3.72;;;11.90;99.90;;;;;;2089199;28;20088;-64
2021/05/04 01:46:53;;;;;;;18.15;3.92;;;11.90;99.90;;;;;;2088649;28;20561;-64
2021/05/04 01:47:54;;;;;;;17.00;2.90;;;11.80;99.90;;;;;;2089054;28;20412;-64
2021/05/04 01:48:55;;;;;;;18.20;3.35;;;11.80;99.90;;;;;;2077063;28;20593;-64
2021/05/04 01:49:55;;;;;;;19.88;3.00;;;11.80;99.90;;;;;;2072397;28;20018;-64
2021/05/04 01:50:56;;;;;;;17.23;2.88;;;11.80;99.90;;;;;;2074466;28;20406;-64
2021/05/04 01:51:57;;;;;;;18.80;2.72;;;11.80;99.90;;;;;;2073958;28;20021;-64
2021/05/04 01:52:58;;;;;;;17.25;3.17;;;11.70;99.90;;;;;;2080562;28;20027;-64
2021/05/04 01:54:00;;;;;;;14.70;2.58;;;11.70;99.90;;;;;;2085335;28;20021;-64
2021/05/04 01:55:01;;;;;;;14.80;3.03;;;11.70;99.90;;;;;;2077003;28;20407;-64
2021/05/04 01:56:02;;;;;;;20.58;2.90;;;11.70;99.90;;;;;;2081222;28;20075;-65
2021/05/04 01:57:04;;;;;;;26.13;3.53;;;11.70;99.90;;;;;;2091840;28;20029;-64
2021/05/04 01:58:05;;;;;;;22.98;3.50;;;11.70;99.90;;;;;;2096506;28;20025;-65
2021/05/04 01:59:06;;;;;;;20.35;3.55;;;11.70;99.90;;;;;;2084556;28;20056;-66
2021/05/04 02:00:08;;;;;;;21.33;2.70;;;11.70;99.90;;;;;;2079938;28;20029;-66
2021/05/04 02:01:09;;;;;;;26.40;3.42;;;11.70;99.90;;;;;;2079703;28;20030;-66
2021/05/04 02:02:10;;;;;;;14.98;2.58;;;11.70;99.90;;;;;;2080636;28;20109;-66
2021/05/04 02:03:10;;;;;;;19.05;2.95;;;11.70;99.90;;;;;;2080174;28;20029;-66
2021/05/04 02:04:11;;;;;;;18.25;4.07;;;11.70;99.90;;;;;;2076773;28;20017;-65
2021/05/04 02:05:13;;;;;;;30.77;3.70;;;11.70;99.90;;;;;;2071425;28;20049;-65
2021/05/04 02:06:13;;;;;;;21.92;3.40;;;11.70;99.90;;;;;;2077352;28;20018;-65
2021/05/04 02:07:14;;;;;;;23.08;2.47;;;11.70;99.90;;;;;;2066102;28;20632;-65
2021/05/04 02:08:15;;;;;;;14.15;2.45;;;11.70;99.90;;;;;;2072626;28;20152;-65
2021/05/04 02:09:15;;;;;;;18.38;3.92;;;11.70;99.90;;;;;;2076951;28;20474;-65
2021/05/04 02:10:16;;;;;;;22.90;3.70;;;11.80;99.90;;;;;;2074226;28;20207;-65
2021/05/04 02:11:17;;;;;;;21.38;3.10;;;11.80;99.90;;;;;;2064468;28;20022;-64
2021/05/04 02:12:18;;;;;;;25.95;2.60;;;11.80;99.90;;;;;;2072159;28;20025;-65
2021/05/04 02:13:18;;;;;;;17.90;3.58;;;11.80;99.90;;;;;;2079943;28;20033;-65
2021/05/04 02:14:19;;;;;;;14.48;2.63;;;11.80;99.90;;;;;;2080675;28;20093;-65
2021/05/04 02:15:20;;;;;;;22.17;2.92;;;11.80;99.90;;;;;;2080685;28;20022;-65
2021/05/04 02:16:20;;;;;;;16.52;3.03;;;11.80;99.90;;;;;;2078346;28;20105;-64
2021/05/04 02:17:21;;;;;;;12.02;2.63;;;11.80;99.90;;;;;;2072105;28;20026;-64
2021/05/04 02:18:22;;;;;;;15.52;2.95;;;11.80;99.90;;;;;;2064205;28;20073;-65
2021/05/04 02:19:22;;;;;;;11.32;2.25;;;11.80;99.90;;;;;;2071120;28;20045;-64
2021/05/04 02:20:23;;;;;;;17.13;2.80;;;11.90;99.90;;;;;;2073215;28;20753;-64
2021/05/04 02:21:24;;;;;;;15.95;2.33;;;11.90;99.90;;;;;;2070391;28;20553;-64
2021/05/04 02:22:25;;;;;;;15.27;2.15;;;11.90;99.90;;;;;;2065092;28;20224;-64
2021/05/04 02:23:25;;;;;;;19.13;3.40;;;11.90;99.90;;;;;;2080382;28;20041;-64
2021/05/04 02:24:26;;;;;;;16.15;2.70;;;11.90;99.90;;;;;;2080382;28;20045;-64
2021/05/04 02:25:27;;;;;;;17.25;3.00;;;11.90;99.90;;;;;;2080492;28;20097;-64
2021/05/04 02:26:27;;;;;;;11.85;2.10;;;11.90;99.90;;;;;;2074222;28;20053;-64
2021/05/04 02:27:28;;;;;;;19.58;2.35;;;11.90;99.90;;;;;;2072386;28;20030;-64
2021/05/04 02:28:29;;;;;;;17.55;2.65;;;12.00;99.90;;;;;;2069268;28;20072;-64
2021/05/04 02:29:29;;;;;;;16.27;2.50;;;12.00;99.90;;;;;;2075590;28;20606;-64
2021/05/04 02:30:32;;;;;;;15.15;2.08;;;12.00;99.90;;;;;;2073344;28;20096;-64
2021/05/04 02:31:33;;;;;;;21.48;3.25;;;12.00;99.90;;;;;;2077996;28;20025;-64
2021/05/04 02:32:36;;;;;;;20.95;3.38;;;12.00;99.90;;;;;;2080466;28;20653;-64
2021/05/04 02:33:38;;;;;;;15.07;2.33;;;12.00;99.90;;;;;;2079992;28;20029;-64
2021/05/04 02:34:39;;;;;;;10.20;1.90;;;11.90;99.90;;;;;;2079858;28;20105;-64
2021/05/04 02:35:40;;;;;;;10.27;2.05;;;12.00;99.90;;;;;;2072764;28;20033;-64
2021/05/04 02:36:40;;;;;;;19.00;2.78;;;12.00;99.90;;;;;;2069723;28;20085;-64
2021/05/04 02:37:41;;;;;;;15.23;2.95;;;12.00;99.90;;;;;;2064786;28;20058;-64
2021/05/04 02:38:42;;;;;;;14.20;1.90;;;12.00;99.90;;;;;;2080504;28;20037;-64
2021/05/04 02:39:42;;;;;;;21.08;2.20;;;12.00;99.90;;;;;;2080363;28;20381;-64
2021/05/04 02:40:43;;;;;;;15.38;2.20;;;12.00;99.90;;;;;;2079802;28;20409;-63
2021/05/04 02:41:44;;;;;;;18.48;2.50;;;12.00;99.90;;;;;;2079542;28;20762;-64
2021/05/04 02:42:45;;;;;;;9.88;1.85;;;12.00;99.90;;;;;;2067266;28;20033;-64
2021/05/04 02:43:46;;;;;;;13.55;2.42;;;12.00;99.90;;;;;;2068940;28;20030;-64
2021/05/04 02:44:46;;;;;;;12.32;2.55;;;12.00;99.90;;;;;;2069186;28;20058;-64
2021/05/04 02:45:47;;;;;;;17.85;2.35;;;12.00;99.90;;;;;;2080240;28;20026;-64
2021/05/04 02:46:48;;;;;;;16.02;3.17;;;12.00;99.90;;;;;;2080017;28;20039;-64
2021/05/04 02:47:48;;;;;;;17.08;2.30;;;12.00;99.90;;;;;;2080346;28;20025;-64
2021/05/04 02:48:49;;;;;;;16.30;2.42;;;12.00;99.90;;;;;;2080229;28;20017;-64
2021/05/04 02:49:50;;;;;;;21.20;2.78;;;12.00;99.90;;;;;;2080194;28;20367;-64
2021/05/04 02:50:50;;;;;;;11.57;2.63;;;12.00;99.90;;;;;;2079683;28;20653;-64
2021/05/04 02:51:51;;;;;;;12.13;2.03;;;12.00;99.90;;;;;;2073672;28;20045;-64
2021/05/04 02:52:52;;;;;;;18.70;2.35;;;12.00;99.90;;;;;;2065779;28;20019;-64
2021/05/04 02:53:53;;;;;;;12.98;2.20;;;11.90;99.90;;;;;;2066295;28;20022;-64
2021/05/04 02:54:53;;;;;;;11.30;2.10;;;11.90;99.90;;;;;;2064135;28;20021;-64
2021/05/04 02:55:54;;;;;;;11.02;2.42;;;11.90;99.90;;;;;;2091900;28;20024;-64
2021/05/04 02:56:55;;;;;;;12.20;2.40;;;12.00;99.90;;;;;;2096129;28;20048;-64
2021/05/04 02:57:56;;;;;;;15.73;2.20;;;12.00;99.90;;;;;;2080501;28;20558;-65
2021/05/04 02:58:56;;;;;;;12.13;1.83;;;12.00;99.90;;;;;;2080402;28;20511;-64
2021/05/04 02:59:57;;;;;;;9.07;1.80;;;12.00;99.90;;;;;;2080641;28;20029;-64
2021/05/04 03:00:58;;;;;;;12.05;2.15;;;12.00;99.90;;;;;;2079320;28;20052;-64
2021/05/04 03:02:00;;;;;;;13.07;2.30;;;12.00;99.90;;;;;;2069399;28;20045;-64
2021/05/04 03:03:00;;;;;;;14.82;2.50;;;12.00;99.90;;;;;;2074194;28;20498;-64
2021/05/04 03:04:01;;;;;;;12.60;1.77;;;12.00;99.90;;;;;;2072532;28;20097;-64
2021/05/04 03:05:02;;;;;;;14.52;2.30;;;12.00;99.90;;;;;;2080506;28;20022;-64
2021/05/04 03:06:04;;;;;;;12.07;2.42;;;12.00;99.90;;;;;;2080466;28;20049;-64
2021/05/04 03:07:04;;;;;;;13.65;2.22;;;11.90;99.90;;;;;;2080072;28;20025;-64
2021/05/04 03:08:05;;;;;;;16.75;2.67;;;11.90;99.90;;;;;;2079651;28;20045;-64
2021/05/04 03:09:06;;;;;;;13.45;2.00;;;12.00;99.90;;;;;;2072197;28;20032;-64
2021/05/04 03:10:07;;;;;;;8.57;1.77;;;12.00;99.90;;;;;;2064104;28;20540;-64
2021/05/04 03:11:08;;;;;;;15.35;2.00;;;12.00;99.90;;;;;;2064984;28;20101;-64
2021/05/04 03:12:09;;;;;;;11.55;1.73;;;12.00;99.90;;;;;;2066922;28;20072;-64
2021/05/04 03:13:09;;;;;;;17.02;2.00;;;12.00;99.90;;;;;;2069587;28;20030;-64
2021/05/04 03:14:10;;;;;;;17.83;2.13;;;12.10;99.90;;;;;;2066438;28;20096;-64
2021/05/04 03:15:11;;;;;;;11.45;2.42;;;12.10;99.90;;;;;;2064228;28;20058;-64
2021/05/04 03:16:12;;;;;;;17.63;2.92;;;12.10;99.90;;;;;;2074723;28;20022;-64
2021/05/04 03:17:13;;;;;;;12.85;2.20;;;12.20;99.90;;;;;;2080222;28;20075;-64
2021/05/04 03:18:13;;;;;;;14.18;2.50;;;12.20;99.90;;;;;;2080335;28;20104;-64
2021/05/04 03:19:14;;;;;;;12.35;2.10;;;12.20;99.90;;;;;;2080371;28;20026;-64
2021/05/04 03:20:15;;;;;;;11.45;2.03;;;12.20;99.90;;;;;;2080264;28;20029;-64
2021/05/04 03:21:16;;;;;;;20.38;2.53;;;12.30;99.90;;;;;;2068418;28;20035;-64
2021/05/04 03:22:16;;;;;;;16.55;2.67;;;12.30;99.90;;;;;;2063576;28;20018;-64
2021/05/04 03:23:18;;;;;;;18.33;3.17;;;12.30;99.90;;;;;;2065342;28;20026;-64
2021/05/04 03:24:19;;;;;;;;;;;12.30;99.90;;;;;;2068966;28;20022;-64
2021/05/04 03:25:20;;;;;;;15.98;2.90;;;12.40;99.90;;;;;;2080365;28;19908;-64
2021/05/04 03:26:20;;;;;;;22.35;3.53;;;12.40;99.90;;;;;;2080211;28;20099;-64
2021/05/04 03:27:21;;;;;;;27.27;3.25;;;12.40;99.90;;;;;;2072371;28;20059;-65
2021/05/04 03:28:21;;;;;;;22.15;3.13;;;12.40;99.90;;;;;;2063424;28;20034;-65
2021/05/04 03:29:22;;;;;;;16.98;3.45;;;12.40;99.90;;;;;;2073192;28;20072;-64
2021/05/04 03:30:23;;;;;;;17.92;2.88;;;12.50;99.90;;;;;;2072172;28;20033;-65
2021/05/04 03:31:24;;;;;;;20.25;3.35;;;12.50;99.90;;;;;;2076315;28;20026;-64
2021/05/04 03:32:24;;;;;;;16.15;3.00;;;12.50;99.90;;;;;;2066028;28;20037;-64
2021/05/04 03:33:25;;;;;;;24.67;3.35;;;12.50;99.90;;;;;;2066196;28;20026;-64
2021/05/04 03:34:26;;;;;;;17.75;3.97;;;12.50;99.90;;;;;;2066708;28;20088;-65
2021/05/04 03:35:26;;;;;;;18.38;2.85;;;12.50;99.90;;;;;;2079544;28;20022;-64
2021/05/04 03:36:27;;;;;;;18.73;2.47;;;12.50;99.90;;;;;;2079208;28;20496;-64
2021/05/04 03:37:28;;;;;;;17.45;2.83;;;12.50;99.90;;;;;;2070590;28;20063;-64
2021/05/04 03:38:28;;;;;;;17.70;2.85;;;12.50;99.90;;;;;;2074013;28;20041;-64
2021/05/04 03:39:29;;;;;;;18.98;3.67;;;12.50;99.90;;;;;;2072478;28;20504;-64
2021/05/04 03:40:30;;;;;;;22.40;4.00;;;12.60;99.90;;;;;;2080214;28;20032;-64
2021/05/04 03:41:31;;;;;;;37.10;5.10;;;12.60;99.90;;;;;;2073285;28;20609;-64
2021/05/04 03:42:32;;;;;;;31.05;3.67;;;12.60;99.90;;;;;;2071013;28;20269;-64
2021/05/04 03:43:32;;;;;;;24.83;3.90;;;12.60;99.90;;;;;;2079030;28;20025;-64
2021/05/04 03:44:33;;;;;;;27.73;3.88;;;12.60;99.90;;;;;;2065505;28;20050;-64
2021/05/04 03:45:34;;;;;;;29.73;4.88;;;12.60;99.90;;;;;;2080155;28;20079;-64
2021/05/04 03:46:34;;;;;;;37.70;6.00;;;12.60;99.90;;;;;;2072841;28;20026;-64
2021/05/04 03:47:36;;;;;;;45.53;7.03;;;12.50;99.90;;;;;;2067677;28;20105;-65
2021/05/04 03:48:37;;;;;;;58.67;8.95;;;12.40;99.90;;;;;;2070269;28;20018;-65
2021/05/04 03:49:38;;;;;;;56.97;9.02;;;12.30;99.90;;;;;;2081672;28;20032;-64
2021/05/04 03:50:38;;;;;;;52.85;8.68;;;12.30;99.90;;;;;;2081665;28;20021;-64
2021/05/04 03:51:39;;;;;;;56.28;8.27;;;12.20;99.90;;;;;;2072851;28;20054;-64
2021/05/04 03:52:40;;;;;;;56.05;9.63;;;12.20;99.90;;;;;;2072614;28;20027;-65
2021/05/04 03:53:41;;;;;;;51.70;7.90;;;12.10;99.90;;;;;;2068950;28;20033;-64
2021/05/04 03:54:41;;;;;;;59.47;8.07;;;12.10;99.90;;;;;;2081571;28;20021;-64
2021/05/04 03:55:44;;;;;;;53.33;7.47;;;12.00;99.90;;;;;;2081260;28;20061;-64
2021/05/04 03:56:45;;;;;;;46.42;8.55;;;12.00;99.90;;;;;;2081429;28;20103;-64
2021/05/04 03:57:46;;;;;;;50.00;7.78;;;12.00;99.90;;;;;;2089012;28;20024;-64
2021/05/04 03:58:47;;;;;;;61.08;9.30;;;12.00;99.90;;;;;;2074452;28;20076;-64
2021/05/04 03:59:47;;;;;;;43.92;8.10;;;11.90;99.90;;;;;;2064615;28;20510;-64
2021/05/04 04:00:48;;;;;;;58.10;8.15;;;11.90;99.90;;;;;;2073482;28;20022;-64
2021/05/04 04:01:48;;;;;;;44.63;7.20;;;11.90;99.90;;;;;;2072480;28;20050;-64
2021/05/04 04:02:52;;;;;;;51.80;9.07;;;11.90;99.90;;;;;;2079204;28;20056;-64
2021/05/04 04:03:52;;;;;;;58.83;9.48;;;11.90;99.90;;;;;;2081277;28;20385;-64
2021/05/04 04:04:53;;;;;;;52.25;7.75;;;11.90;99.90;;;;;;2081670;28;20017;-64
2021/05/04 04:05:55;;;;;;;58.97;10.45;;;11.90;99.90;;;;;;2075763;28;20029;-64
2021/05/04 04:06:56;;;;;;;59.47;10.02;;;11.90;99.90;;;;;;2070404;28;20022;-64
2021/05/04 04:07:57;;;;;;;55.15;8.48;;;11.90;99.90;;;;;;2070669;28;20032;-64
2021/05/04 04:08:58;;;;;;;55.92;9.35;;;11.90;99.90;;;;;;2068678;28;20567;-64
2021/05/04 04:09:58;;;;;;;52.47;8.00;;;11.90;99.90;;;;;;2081384;28;20022;-64
2021/05/04 04:10:59;;;;;;;49.50;8.77;;;11.90;99.90;;;;;;2080374;28;20460;-64
2021/05/04 04:12:00;;;;;;;44.25;7.38;;;11.90;99.90;;;;;;2076605;28;20030;-64
2021/05/04 04:13:00;;;;;;;61.38;8.82;;;11.80;99.90;;;;;;2080256;28;20017;-64
2021/05/04 04:14:01;;;;;;;46.92;7.32;;;11.90;99.90;;;;;;2078019;28;20014;-64
2021/05/04 04:15:02;;;;;;;53.20;9.02;;;11.90;99.90;;;;;;2073079;28;20445;-64
2021/05/04 04:16:03;;;;;;;42.85;7.65;;;11.90;99.90;;;;;;2074915;28;20105;-64
2021/05/04 04:17:04;;;;;;;48.17;7.65;;;11.80;99.90;;;;;;2080569;28;20036;-64
2021/05/04 04:18:05;;;;;;;48.28;7.35;;;11.80;99.90;;;;;;2094178;28;20145;-64
2021/05/04 04:19:08;;;;;;;50.50;9.38;;;11.80;99.90;;;;;;2081244;28;20015;-64
2021/05/04 04:20:09;;;;;;;51.25;8.13;;;11.80;99.90;;;;;;2081554;28;20022;-64
2021/05/04 04:21:09;;;;;;;47.60;6.95;;;11.80;99.90;;;;;;2081050;28;20092;-64
2021/05/04 04:22:10;;;;;;;43.88;6.85;;;11.80;99.90;;;;;;2081394;28;20018;-64
2021/05/04 04:23:10;;;;;;;55.67;8.07;;;11.80;99.90;;;;;;2066230;28;20030;-64
2021/05/04 04:24:11;;;;;;;44.83;7.03;;;11.80;99.90;;;;;;2066105;28;20030;-64
2021/05/04 04:25:12;;;;;;;40.45;7.80;;;11.80;99.90;;;;;;2066995;28;20034;-64
2021/05/04 04:26:13;;;;;;;46.92;7.93;;;11.80;99.90;;;;;;2080202;28;20029;-64
2021/05/04 04:27:14;;;;;;;60.40;8.38;;;11.80;99.90;;;;;;2088697;28;20614;-64
2021/05/04 04:28:14;;;;;;;38.85;7.43;;;11.80;99.90;;;;;;2076482;28;20033;-64
2021/05/04 04:29:15;;;;;;;47.25;8.68;;;11.80;99.90;;;;;;2064700;28;20473;-64
2021/05/04 04:30:16;;;;;;;42.55;7.32;;;11.70;99.90;;;;;;2072564;28;20073;-64
2021/05/04 04:31:17;;;;;;;54.05;8.18;;;11.80;99.90;;;;;;2072152;28;20018;-64
2021/05/04 04:32:17;;;;;;;37.97;7.75;;;11.80;99.90;;;;;;2079479;28;20028;-64
2021/05/04 04:33:28;;;;;;;41.17;6.50;;;11.70;99.90;;;;;;2084786;28;20132;-64
2021/05/04 04:34:28;;;;;;;39.58;6.72;;;11.80;99.90;;;;;;2080640;28;20017;-63
2021/05/04 04:35:29;;;;;;;43.25;6.75;;;11.80;99.90;;;;;;2065076;28;20034;-64
2021/05/04 04:36:30;;;;;;;42.08;6.78;;;11.80;99.90;;;;;;2073936;28;20133;-64
2021/05/04 04:37:31;;;;;;;43.25;7.47;;;11.80;99.90;;;;;;2074044;28;21027;-63
2021/05/04 04:38:31;;;;;;;40.83;7.43;;;11.80;99.90;;;;;;2064310;28;20028;-64
2021/05/04 04:39:32;;;;;;;50.58;7.82;;;11.80;99.90;;;;;;2067599;28;20044;-63
2021/05/04 04:40:33;;;;;;;42.75;7.13;;;11.80;99.90;;;;;;2080996;28;20026;-64
2021/05/04 04:41:40;;;;;;;53.47;7.30;;;11.80;99.90;;;;;;2080846;28;20052;-64
2021/05/04 04:42:41;;;;;;;49.17;7.68;;;11.80;99.90;;;;;;2081368;28;20079;-63
2021/05/04 04:43:41;;;;;;;37.25;7.28;;;11.80;99.90;;;;;;2081118;28;20091;-64
2021/05/04 04:44:42;;;;;;;44.08;7.32;;;11.80;99.90;;;;;;2081024;28;20044;-64
2021/05/04 04:45:43;;;;;;;42.10;6.38;;;11.80;99.90;;;;;;2079344;28;20021;-63
2021/05/04 04:46:44;;;;;;;36.70;6.38;;;11.90;99.90;;;;;;2071191;28;20145;-64
2021/05/04 04:47:45;;;;;;;39.42;7.20;;;11.80;99.90;;;;;;2072891;28;20492;-64
2021/05/04 04:48:46;;;;;;;45.05;7.68;;;11.90;99.90;;;;;;2071826;28;20032;-64
2021/05/04 04:49:47;;;;;;;39.55;7.47;;;11.90;99.90;;;;;;2081189;28;20049;-64
2021/05/04 04:50:47;;;;;;;36.42;7.22;;;11.90;99.90;;;;;;2080152;28;20075;-64
2021/05/04 04:51:48;;;;;;;36.85;6.15;;;11.90;99.90;;;;;;2080499;28;20033;-64
2021/05/04 04:52:49;;;;;;;36.05;6.70;;;11.90;99.90;;;;;;2081144;28;20493;-64
2021/05/04 04:53:49;;;;;;;43.70;7.18;;;11.80;99.90;;;;;;2080695;28;20026;-64
2021/05/04 04:54:50;;;;;;;45.60;6.97;;;11.90;99.90;;;;;;2064723;28;20022;-64
2021/05/04 04:55:50;;;;;;;50.03;8.10;;;11.90;99.90;;;;;;2075698;28;20025;-64
2021/05/04 04:56:51;;;;;;;38.00;6.93;;;11.90;99.90;;;;;;2067131;28;20033;-64
2021/05/04 04:57:52;;;;;;;51.40;8.43;;;11.80;99.90;;;;;;2081156;28;20366;-64
2021/05/04 04:58:53;;;;;;;51.42;7.90;;;11.80;99.90;;;;;;2080955;28;20025;-64
2021/05/04 04:59:54;;;;;;;45.42;7.03;;;11.80;99.90;;;;;;2081208;28;20085;-64
2021/05/04 05:00:54;;;;;;;49.05;7.68;;;11.80;99.90;;;;;;2080713;28;20021;-64
2021/05/04 05:01:55;;;;;;;47.60;9.45;;;11.80;99.90;;;;;;2081087;28;20032;-64
2021/05/04 05:02:56;;;;;;;40.25;8.95;;;11.80;99.90;;;;;;2081209;28;20049;-64
2021/05/04 05:03:56;;;;;;;37.25;8.57;;;11.80;99.90;;;;;;2070642;28;20026;-64
2021/05/04 05:04:57;;;;;;;47.38;8.18;;;11.80;99.90;;;;;;2068020;28;20061;-64
2021/05/04 05:05:58;;;;;;;59.30;10.13;;;11.90;99.90;;;;;;2074453;28;20026;-64
2021/05/04 05:07:01;;;;;;;46.80;7.50;;;11.80;99.90;;;;;;2081145;28;20013;-64
2021/05/04 05:08:02;;;;;;;54.10;8.52;;;11.90;99.90;;;;;;2081003;28;20018;-63
2021/05/04 05:09:07;;;;;;;39.28;6.95;;;11.80;99.90;;;;;;2081023;28;20024;-65
2021/05/04 05:10:09;;;;;;;40.88;6.60;;;11.80;99.90;;;;;;2081230;28;20079;-63
2021/05/04 05:11:10;;;;;;;50.80;8.27;;;11.80;99.90;;;;;;2080398;28;20550;-64
2021/05/04 05:12:10;;;;;;;46.40;7.75;;;11.90;99.90;;;;;;2074985;28;20034;-64
2021/05/04 05:13:11;;;;;;;52.00;8.38;;;11.90;99.90;;;;;;2076419;28;20029;-63
2021/05/04 05:14:12;;;;;;;54.80;9.30;;;11.90;99.90;;;;;;2074429;28;20654;-64